sensor_id;sensor_type;location;lat;lon;timestamp;P1;durP1;ratioP1;P2;durP2;ratioP2
50128;SDS011;36026;45.478;9.224;2023-03-01T00:02:18;36.60;;;22.50;;
50128;SDS011;36026;45.478;9.224;2023-03-01T00:05:21;39.22;;;23.70;;
50128;SDS011;36026;45.478;9.224;2023-03-01T00:08:23;40.70;;;23.47;;
50128;SDS011;36026;45.478;9.224;2023-03-01T00:11:26;37.38;;;23.63;;
50128;SDS011;36026;45.478;9.224;2023-03-01T00:14:30;39.42;;;23.73;;
50128;SDS011;36026;45.478;9.224;2023-03-01T00:17:32;39.97;;;23.83;;
50128;SDS011;36026;45.478;9.224;2023-03-01T00:20:35;37.72;;;23.92;;
50128;SDS011;36026;45.478;9.224;2023-03-01T00:23:38;40.42;;;24.85;;
50128;SDS011;36026;45.478;9.224;2023-03-01T00:26:46;37.53;;;24.08;;
50128;SDS011;36026;45.478;9.224;2023-03-01T00:29:48;38.85;;;25.45;;
50128;SDS011;36026;45.478;9.224;2023-03-01T00:32:50;42.42;;;24.33;;
50128;SDS011;36026;45.478;9.224;2023-03-01T00:35:53;38.03;;;23.08;;
50128;SDS011;36026;45.478;9.224;2023-03-01T00:42:43;38.88;;;23.10;;
50128;SDS011;36026;45.478;9.224;2023-03-01T00:45:45;39.85;;;23.65;;
50128;SDS011;36026;45.478;9.224;2023-03-01T00:48:56;41.85;;;24.40;;
50128;SDS011;36026;45.478;9.224;2023-03-01T00:51:59;36.97;;;23.83;;
50128;SDS011;36026;45.478;9.224;2023-03-01T00:59:06;36.73;;;22.60;;
50128;SDS011;36026;45.478;9.224;2023-03-01T01:02:08;42.10;;;23.92;;
50128;SDS011;36026;45.478;9.224;2023-03-01T01:05:11;40.95;;;24.48;;
50128;SDS011;36026;45.478;9.224;2023-03-01T01:08:14;39.65;;;24.25;;
50128;SDS011;36026;45.478;9.224;2023-03-01T01:11:16;36.63;;;23.13;;
50128;SDS011;36026;45.478;9.224;2023-03-01T01:14:19;38.72;;;23.05;;
50128;SDS011;36026;45.478;9.224;2023-03-01T01:17:21;38.63;;;23.17;;
50128;SDS011;36026;45.478;9.224;2023-03-01T01:20:24;38.78;;;23.15;;
50128;SDS011;36026;45.478;9.224;2023-03-01T01:23:28;36.50;;;23.60;;
50128;SDS011;36026;45.478;9.224;2023-03-01T01:26:30;38.73;;;22.67;;
50128;SDS011;36026;45.478;9.224;2023-03-01T01:29:33;37.63;;;22.27;;
50128;SDS011;36026;45.478;9.224;2023-03-01T01:32:35;41.53;;;23.30;;
50128;SDS011;36026;45.478;9.224;2023-03-01T01:35:38;38.70;;;22.75;;
50128;SDS011;36026;45.478;9.224;2023-03-01T01:38:41;38.78;;;22.55;;
50128;SDS011;36026;45.478;9.224;2023-03-01T01:41:43;37.92;;;22.75;;
50128;SDS011;36026;45.478;9.224;2023-03-01T01:44:45;41.30;;;23.70;;
50128;SDS011;36026;45.478;9.224;2023-03-01T01:47:50;33.95;;;21.67;;
50128;SDS011;36026;45.478;9.224;2023-03-01T01:50:54;35.90;;;22.20;;
50128;SDS011;36026;45.478;9.224;2023-03-01T01:53:59;38.25;;;22.40;;
50128;SDS011;36026;45.478;9.224;2023-03-01T01:57:06;37.65;;;23.13;;
50128;SDS011;36026;45.478;9.224;2023-03-01T02:00:11;39.30;;;22.58;;
50128;SDS011;36026;45.478;9.224;2023-03-01T02:03:17;38.67;;;22.67;;
50128;SDS011;36026;45.478;9.224;2023-03-01T02:06:21;37.28;;;22.30;;
50128;SDS011;36026;45.478;9.224;2023-03-01T02:09:30;34.65;;;21.63;;
50128;SDS011;36026;45.478;9.224;2023-03-01T02:12:33;35.75;;;22.20;;
50128;SDS011;36026;45.478;9.224;2023-03-01T02:15:36;34.67;;;21.50;;
50128;SDS011;36026;45.478;9.224;2023-03-01T02:18:39;36.80;;;23.25;;
50128;SDS011;36026;45.478;9.224;2023-03-01T02:21:42;39.30;;;23.20;;
50128;SDS011;36026;45.478;9.224;2023-03-01T02:24:52;38.60;;;24.17;;
50128;SDS011;36026;45.478;9.224;2023-03-01T02:31:23;37.45;;;22.88;;
50128;SDS011;36026;45.478;9.224;2023-03-01T02:34:44;37.08;;;22.65;;
50128;SDS011;36026;45.478;9.224;2023-03-01T02:37:47;35.15;;;22.35;;
50128;SDS011;36026;45.478;9.224;2023-03-01T02:40:50;37.13;;;22.30;;
50128;SDS011;36026;45.478;9.224;2023-03-01T02:43:54;37.23;;;22.50;;
50128;SDS011;36026;45.478;9.224;2023-03-01T02:46:56;40.95;;;22.35;;
50128;SDS011;36026;45.478;9.224;2023-03-01T02:50:00;38.07;;;23.13;;
50128;SDS011;36026;45.478;9.224;2023-03-01T02:53:03;37.08;;;21.88;;
50128;SDS011;36026;45.478;9.224;2023-03-01T02:56:07;36.42;;;21.65;;
50128;SDS011;36026;45.478;9.224;2023-03-01T02:59:14;39.28;;;22.08;;
50128;SDS011;36026;45.478;9.224;2023-03-01T03:02:18;38.97;;;23.40;;
50128;SDS011;36026;45.478;9.224;2023-03-01T03:05:35;39.65;;;22.90;;
50128;SDS011;36026;45.478;9.224;2023-03-01T03:08:37;39.83;;;22.90;;
50128;SDS011;36026;45.478;9.224;2023-03-01T03:11:39;38.72;;;23.08;;
50128;SDS011;36026;45.478;9.224;2023-03-01T03:14:44;37.72;;;22.55;;
50128;SDS011;36026;45.478;9.224;2023-03-01T03:17:46;42.67;;;24.27;;
50128;SDS011;36026;45.478;9.224;2023-03-01T03:20:48;36.78;;;22.85;;
50128;SDS011;36026;45.478;9.224;2023-03-01T03:23:52;41.13;;;24.00;;
50128;SDS011;36026;45.478;9.224;2023-03-01T03:26:55;38.30;;;23.15;;
50128;SDS011;36026;45.478;9.224;2023-03-01T03:29:58;39.15;;;23.55;;
50128;SDS011;36026;45.478;9.224;2023-03-01T03:33:00;41.03;;;23.05;;
50128;SDS011;36026;45.478;9.224;2023-03-01T03:36:02;37.60;;;23.02;;
50128;SDS011;36026;45.478;9.224;2023-03-01T03:39:04;41.97;;;22.10;;
50128;SDS011;36026;45.478;9.224;2023-03-01T03:42:05;36.70;;;22.45;;
50128;SDS011;36026;45.478;9.224;2023-03-01T03:45:09;38.60;;;22.85;;
50128;SDS011;36026;45.478;9.224;2023-03-01T03:48:11;40.43;;;23.03;;
50128;SDS011;36026;45.478;9.224;2023-03-01T03:51:13;37.78;;;21.90;;
50128;SDS011;36026;45.478;9.224;2023-03-01T03:54:16;41.85;;;24.10;;
50128;SDS011;36026;45.478;9.224;2023-03-01T03:57:18;38.33;;;23.35;;
50128;SDS011;36026;45.478;9.224;2023-03-01T04:00:22;37.75;;;22.35;;
50128;SDS011;36026;45.478;9.224;2023-03-01T04:03:25;33.00;;;19.58;;
50128;SDS011;36026;45.478;9.224;2023-03-01T04:06:28;35.88;;;20.85;;
50128;SDS011;36026;45.478;9.224;2023-03-01T04:09:29;31.25;;;19.35;;
50128;SDS011;36026;45.478;9.224;2023-03-01T04:12:31;34.40;;;18.98;;
50128;SDS011;36026;45.478;9.224;2023-03-01T04:15:35;31.77;;;18.23;;
50128;SDS011;36026;45.478;9.224;2023-03-01T04:18:38;31.17;;;19.50;;
50128;SDS011;36026;45.478;9.224;2023-03-01T04:21:42;30.13;;;18.95;;
50128;SDS011;36026;45.478;9.224;2023-03-01T04:24:44;35.47;;;18.23;;
50128;SDS011;36026;45.478;9.224;2023-03-01T04:27:46;30.35;;;17.55;;
50128;SDS011;36026;45.478;9.224;2023-03-01T04:30:49;28.00;;;16.90;;
50128;SDS011;36026;45.478;9.224;2023-03-01T04:33:52;26.10;;;16.55;;
50128;SDS011;36026;45.478;9.224;2023-03-01T04:36:55;27.80;;;16.63;;
50128;SDS011;36026;45.478;9.224;2023-03-01T04:39:57;28.60;;;16.58;;
50128;SDS011;36026;45.478;9.224;2023-03-01T04:42:59;26.80;;;15.25;;
50128;SDS011;36026;45.478;9.224;2023-03-01T04:46:04;28.50;;;16.92;;
50128;SDS011;36026;45.478;9.224;2023-03-01T04:49:08;28.88;;;15.32;;
50128;SDS011;36026;45.478;9.224;2023-03-01T04:52:10;26.80;;;15.48;;
50128;SDS011;36026;45.478;9.224;2023-03-01T04:55:12;23.08;;;13.82;;
50128;SDS011;36026;45.478;9.224;2023-03-01T04:58:14;21.52;;;13.00;;
50128;SDS011;36026;45.478;9.224;2023-03-01T05:04:33;20.50;;;12.63;;
50128;SDS011;36026;45.478;9.224;2023-03-01T05:07:35;20.77;;;12.75;;
50128;SDS011;36026;45.478;9.224;2023-03-01T05:10:37;22.23;;;12.82;;
50128;SDS011;36026;45.478;9.224;2023-03-01T05:13:43;19.70;;;12.23;;
50128;SDS011;36026;45.478;9.224;2023-03-01T05:16:46;19.02;;;11.65;;
50128;SDS011;36026;45.478;9.224;2023-03-01T05:19:48;22.33;;;12.80;;
50128;SDS011;36026;45.478;9.224;2023-03-01T05:22:50;24.15;;;12.65;;
50128;SDS011;36026;45.478;9.224;2023-03-01T05:25:52;23.63;;;13.20;;
50128;SDS011;36026;45.478;9.224;2023-03-01T05:28:55;20.88;;;11.70;;
50128;SDS011;36026;45.478;9.224;2023-03-01T05:32:02;21.02;;;12.20;;
50128;SDS011;36026;45.478;9.224;2023-03-01T05:35:05;19.33;;;11.13;;
50128;SDS011;36026;45.478;9.224;2023-03-01T05:38:08;22.00;;;11.45;;
50128;SDS011;36026;45.478;9.224;2023-03-01T05:41:14;20.95;;;11.93;;
50128;SDS011;36026;45.478;9.224;2023-03-01T05:44:17;17.45;;;10.27;;
50128;SDS011;36026;45.478;9.224;2023-03-01T05:47:20;22.02;;;11.23;;
50128;SDS011;36026;45.478;9.224;2023-03-01T05:50:23;19.47;;;11.60;;
50128;SDS011;36026;45.478;9.224;2023-03-01T05:53:26;17.73;;;8.80;;
50128;SDS011;36026;45.478;9.224;2023-03-01T05:56:28;17.48;;;10.85;;
50128;SDS011;36026;45.478;9.224;2023-03-01T05:59:30;19.23;;;11.32;;
50128;SDS011;36026;45.478;9.224;2023-03-01T06:02:36;16.42;;;9.65;;
50128;SDS011;36026;45.478;9.224;2023-03-01T06:05:40;23.75;;;10.18;;
50128;SDS011;36026;45.478;9.224;2023-03-01T06:08:42;19.30;;;10.68;;
50128;SDS011;36026;45.478;9.224;2023-03-01T06:11:44;18.48;;;11.07;;
50128;SDS011;36026;45.478;9.224;2023-03-01T06:14:46;19.88;;;10.82;;
50128;SDS011;36026;45.478;9.224;2023-03-01T06:17:50;17.98;;;11.02;;
50128;SDS011;36026;45.478;9.224;2023-03-01T06:20:52;19.15;;;10.52;;
50128;SDS011;36026;45.478;9.224;2023-03-01T06:23:57;21.48;;;10.88;;
50128;SDS011;36026;45.478;9.224;2023-03-01T06:27:00;20.15;;;10.80;;
50128;SDS011;36026;45.478;9.224;2023-03-01T06:33:24;22.05;;;12.20;;
50128;SDS011;36026;45.478;9.224;2023-03-01T06:36:28;20.92;;;12.50;;
50128;SDS011;36026;45.478;9.224;2023-03-01T06:39:30;21.23;;;11.52;;
50128;SDS011;36026;45.478;9.224;2023-03-01T06:42:32;21.38;;;11.82;;
50128;SDS011;36026;45.478;9.224;2023-03-01T06:45:34;20.13;;;12.10;;
50128;SDS011;36026;45.478;9.224;2023-03-01T06:48:37;22.50;;;12.68;;
50128;SDS011;36026;45.478;9.224;2023-03-01T06:51:47;19.77;;;11.02;;
50128;SDS011;36026;45.478;9.224;2023-03-01T06:54:48;19.70;;;11.48;;
50128;SDS011;36026;45.478;9.224;2023-03-01T06:57:53;21.70;;;12.32;;
50128;SDS011;36026;45.478;9.224;2023-03-01T07:00:56;18.67;;;11.18;;
50128;SDS011;36026;45.478;9.224;2023-03-01T07:03:59;17.48;;;11.07;;
50128;SDS011;36026;45.478;9.224;2023-03-01T07:07:01;15.17;;;9.07;;
50128;SDS011;36026;45.478;9.224;2023-03-01T07:10:06;19.30;;;10.50;;
50128;SDS011;36026;45.478;9.224;2023-03-01T07:13:13;17.60;;;10.13;;
50128;SDS011;36026;45.478;9.224;2023-03-01T07:16:15;21.95;;;11.38;;
50128;SDS011;36026;45.478;9.224;2023-03-01T07:19:20;24.17;;;11.45;;
50128;SDS011;36026;45.478;9.224;2023-03-01T07:22:22;19.20;;;10.95;;
50128;SDS011;36026;45.478;9.224;2023-03-01T07:25:24;17.00;;;11.10;;
50128;SDS011;36026;45.478;9.224;2023-03-01T07:28:26;19.10;;;10.80;;
50128;SDS011;36026;45.478;9.224;2023-03-01T07:31:28;16.20;;;9.73;;
50128;SDS011;36026;45.478;9.224;2023-03-01T07:34:32;19.38;;;10.20;;
50128;SDS011;36026;45.478;9.224;2023-03-01T07:37:34;17.80;;;11.17;;
50128;SDS011;36026;45.478;9.224;2023-03-01T07:40:38;18.05;;;10.43;;
50128;SDS011;36026;45.478;9.224;2023-03-01T07:43:39;20.17;;;11.03;;
50128;SDS011;36026;45.478;9.224;2023-03-01T07:46:42;18.48;;;10.75;;
50128;SDS011;36026;45.478;9.224;2023-03-01T07:49:46;18.15;;;10.32;;
50128;SDS011;36026;45.478;9.224;2023-03-01T07:52:48;17.05;;;10.32;;
50128;SDS011;36026;45.478;9.224;2023-03-01T07:55:59;15.32;;;9.45;;
50128;SDS011;36026;45.478;9.224;2023-03-01T07:59:03;19.52;;;10.50;;
50128;SDS011;36026;45.478;9.224;2023-03-01T08:02:05;17.73;;;10.23;;
50128;SDS011;36026;45.478;9.224;2023-03-01T08:05:09;15.02;;;9.68;;
50128;SDS011;36026;45.478;9.224;2023-03-01T08:08:11;15.48;;;9.30;;
50128;SDS011;36026;45.478;9.224;2023-03-01T08:11:13;17.67;;;11.05;;
50128;SDS011;36026;45.478;9.224;2023-03-01T08:14:15;18.20;;;10.77;;
50128;SDS011;36026;45.478;9.224;2023-03-01T08:17:18;17.48;;;10.43;;
50128;SDS011;36026;45.478;9.224;2023-03-01T08:20:21;16.80;;;9.55;;
50128;SDS011;36026;45.478;9.224;2023-03-01T08:23:23;17.10;;;9.93;;
50128;SDS011;36026;45.478;9.224;2023-03-01T08:26:25;16.80;;;9.98;;
50128;SDS011;36026;45.478;9.224;2023-03-01T08:29:27;17.42;;;10.18;;
50128;SDS011;36026;45.478;9.224;2023-03-01T08:32:34;18.50;;;10.55;;
50128;SDS011;36026;45.478;9.224;2023-03-01T08:39:47;18.33;;;11.82;;
50128;SDS011;36026;45.478;9.224;2023-03-01T08:42:48;25.85;;;13.27;;
50128;SDS011;36026;45.478;9.224;2023-03-01T08:45:51;20.92;;;13.95;;
50128;SDS011;36026;45.478;9.224;2023-03-01T08:48:55;30.17;;;16.48;;
50128;SDS011;36026;45.478;9.224;2023-03-01T08:55:00;29.70;;;17.67;;
50128;SDS011;36026;45.478;9.224;2023-03-01T08:58:04;27.77;;;16.42;;
50128;SDS011;36026;45.478;9.224;2023-03-01T09:01:07;27.55;;;16.02;;
50128;SDS011;36026;45.478;9.224;2023-03-01T09:04:10;29.23;;;17.48;;
50128;SDS011;36026;45.478;9.224;2023-03-01T09:07:13;36.75;;;17.38;;
50128;SDS011;36026;45.478;9.224;2023-03-01T09:10:15;28.50;;;18.10;;
50128;SDS011;36026;45.478;9.224;2023-03-01T09:13:18;27.48;;;17.42;;
50128;SDS011;36026;45.478;9.224;2023-03-01T09:16:20;31.50;;;17.75;;
50128;SDS011;36026;45.478;9.224;2023-03-01T09:19:23;32.83;;;17.33;;
50128;SDS011;36026;45.478;9.224;2023-03-01T09:22:26;30.38;;;17.35;;
50128;SDS011;36026;45.478;9.224;2023-03-01T09:25:29;29.88;;;16.90;;
50128;SDS011;36026;45.478;9.224;2023-03-01T09:28:31;28.15;;;17.50;;
50128;SDS011;36026;45.478;9.224;2023-03-01T09:31:39;37.53;;;17.02;;
50128;SDS011;36026;45.478;9.224;2023-03-01T09:34:41;26.67;;;16.02;;
50128;SDS011;36026;45.478;9.224;2023-03-01T09:45:27;26.83;;;14.57;;
50128;SDS011;36026;45.478;9.224;2023-03-01T09:48:37;25.85;;;15.85;;
50128;SDS011;36026;45.478;9.224;2023-03-01T09:52:15;25.17;;;14.98;;
50128;SDS011;36026;45.478;9.224;2023-03-01T09:55:29;29.55;;;15.55;;
50128;SDS011;36026;45.478;9.224;2023-03-01T09:58:37;26.45;;;15.57;;
50128;SDS011;36026;45.478;9.224;2023-03-01T10:05:04;25.40;;;15.95;;
50128;SDS011;36026;45.478;9.224;2023-03-01T10:11:44;25.40;;;15.25;;
50128;SDS011;36026;45.478;9.224;2023-03-01T10:18:22;29.83;;;16.52;;
50128;SDS011;36026;45.478;9.224;2023-03-01T10:21:41;30.67;;;16.05;;
50128;SDS011;36026;45.478;9.224;2023-03-01T10:24:45;28.52;;;16.08;;
50128;SDS011;36026;45.478;9.224;2023-03-01T10:27:52;25.02;;;15.63;;
50128;SDS011;36026;45.478;9.224;2023-03-01T10:30:56;25.17;;;14.98;;
50128;SDS011;36026;45.478;9.224;2023-03-01T10:33:59;23.88;;;15.07;;
50128;SDS011;36026;45.478;9.224;2023-03-01T10:37:08;24.20;;;15.90;;
50128;SDS011;36026;45.478;9.224;2023-03-01T10:40:53;27.17;;;15.95;;
50128;SDS011;36026;45.478;9.224;2023-03-01T10:44:03;22.70;;;15.85;;
50128;SDS011;36026;45.478;9.224;2023-03-01T10:47:39;23.83;;;15.40;;
50128;SDS011;36026;45.478;9.224;2023-03-01T10:50:42;24.83;;;14.77;;
50128;SDS011;36026;45.478;9.224;2023-03-01T10:53:48;22.48;;;13.45;;
50128;SDS011;36026;45.478;9.224;2023-03-01T10:57:10;22.40;;;13.50;;
50128;SDS011;36026;45.478;9.224;2023-03-01T11:00:39;28.27;;;14.55;;
50128;SDS011;36026;45.478;9.224;2023-03-01T11:19:32;25.40;;;14.70;;
50128;SDS011;36026;45.478;9.224;2023-03-01T11:22:34;24.58;;;15.48;;
50128;SDS011;36026;45.478;9.224;2023-03-01T11:25:43;24.63;;;16.10;;
50128;SDS011;36026;45.478;9.224;2023-03-01T11:28:50;26.73;;;15.55;;
50128;SDS011;36026;45.478;9.224;2023-03-01T11:31:55;27.60;;;16.23;;
50128;SDS011;36026;45.478;9.224;2023-03-01T11:38:21;23.92;;;16.17;;
50128;SDS011;36026;45.478;9.224;2023-03-01T11:41:25;26.23;;;16.50;;
50128;SDS011;36026;45.478;9.224;2023-03-01T11:44:30;24.73;;;15.50;;
50128;SDS011;36026;45.478;9.224;2023-03-01T11:47:39;28.15;;;17.63;;
50128;SDS011;36026;45.478;9.224;2023-03-01T11:51:07;25.75;;;16.80;;
50128;SDS011;36026;45.478;9.224;2023-03-01T11:54:14;26.00;;;16.40;;
50128;SDS011;36026;45.478;9.224;2023-03-01T11:57:27;25.83;;;15.27;;
50128;SDS011;36026;45.478;9.224;2023-03-01T12:00:43;25.95;;;15.57;;
50128;SDS011;36026;45.478;9.224;2023-03-01T12:04:03;26.98;;;15.10;;
50128;SDS011;36026;45.478;9.224;2023-03-01T12:07:23;25.00;;;15.98;;
50128;SDS011;36026;45.478;9.224;2023-03-01T12:10:27;23.77;;;15.63;;
50128;SDS011;36026;45.478;9.224;2023-03-01T12:13:54;26.77;;;16.50;;
50128;SDS011;36026;45.478;9.224;2023-03-01T12:20:43;29.13;;;15.80;;
50128;SDS011;36026;45.478;9.224;2023-03-01T12:24:05;27.77;;;16.23;;
50128;SDS011;36026;45.478;9.224;2023-03-01T12:27:23;26.27;;;16.40;;
50128;SDS011;36026;45.478;9.224;2023-03-01T12:30:37;70.10;;;42.42;;
50128;SDS011;36026;45.478;9.224;2023-03-01T12:33:45;35.08;;;21.98;;
50128;SDS011;36026;45.478;9.224;2023-03-01T12:36:56;27.42;;;16.30;;
50128;SDS011;36026;45.478;9.224;2023-03-01T12:43:36;24.92;;;16.17;;
50128;SDS011;36026;45.478;9.224;2023-03-01T12:46:49;22.88;;;15.48;;
50128;SDS011;36026;45.478;9.224;2023-03-01T12:49:55;25.90;;;15.68;;
50128;SDS011;36026;45.478;9.224;2023-03-01T12:52:59;28.63;;;16.70;;
50128;SDS011;36026;45.478;9.224;2023-03-01T12:56:13;28.27;;;16.67;;
50128;SDS011;36026;45.478;9.224;2023-03-01T12:59:17;26.30;;;17.15;;
50128;SDS011;36026;45.478;9.224;2023-03-01T13:02:24;24.70;;;16.23;;
50128;SDS011;36026;45.478;9.224;2023-03-01T13:05:33;27.70;;;15.88;;
50128;SDS011;36026;45.478;9.224;2023-03-01T13:09:08;24.70;;;15.52;;
50128;SDS011;36026;45.478;9.224;2023-03-01T13:19:57;24.10;;;15.48;;
50128;SDS011;36026;45.478;9.224;2023-03-01T13:23:01;27.63;;;16.83;;
50128;SDS011;36026;45.478;9.224;2023-03-01T13:29:54;24.60;;;16.08;;
50128;SDS011;36026;45.478;9.224;2023-03-01T13:44:42;23.57;;;15.27;;
50128;SDS011;36026;45.478;9.224;2023-03-01T13:48:11;22.85;;;15.32;;
50128;SDS011;36026;45.478;9.224;2023-03-01T13:51:28;23.55;;;15.05;;
50128;SDS011;36026;45.478;9.224;2023-03-01T13:54:34;30.08;;;16.52;;
50128;SDS011;36026;45.478;9.224;2023-03-01T13:57:41;29.55;;;15.57;;
50128;SDS011;36026;45.478;9.224;2023-03-01T14:01:22;26.10;;;16.38;;
50128;SDS011;36026;45.478;9.224;2023-03-01T14:04:32;26.30;;;16.27;;
50128;SDS011;36026;45.478;9.224;2023-03-01T14:07:56;29.33;;;17.23;;
50128;SDS011;36026;45.478;9.224;2023-03-01T14:22:15;29.55;;;17.27;;
50128;SDS011;36026;45.478;9.224;2023-03-01T14:25:23;46.65;;;28.40;;
50128;SDS011;36026;45.478;9.224;2023-03-01T14:29:00;44.90;;;26.10;;
50128;SDS011;36026;45.478;9.224;2023-03-01T14:32:17;27.27;;;17.58;;
50128;SDS011;36026;45.478;9.224;2023-03-01T14:35:23;30.15;;;17.77;;
50128;SDS011;36026;45.478;9.224;2023-03-01T14:42:38;30.10;;;17.25;;
50128;SDS011;36026;45.478;9.224;2023-03-01T14:45:42;29.15;;;17.42;;
50128;SDS011;36026;45.478;9.224;2023-03-01T14:48:49;27.90;;;17.00;;
50128;SDS011;36026;45.478;9.224;2023-03-01T14:51:54;29.23;;;17.55;;
50128;SDS011;36026;45.478;9.224;2023-03-01T14:54:59;28.42;;;17.10;;
50128;SDS011;36026;45.478;9.224;2023-03-01T14:58:04;27.73;;;16.52;;
50128;SDS011;36026;45.478;9.224;2023-03-01T15:01:07;29.73;;;16.55;;
50128;SDS011;36026;45.478;9.224;2023-03-01T15:04:15;27.15;;;17.25;;
50128;SDS011;36026;45.478;9.224;2023-03-01T15:07:19;27.42;;;16.40;;
50128;SDS011;36026;45.478;9.224;2023-03-01T15:10:22;30.70;;;17.08;;
50128;SDS011;36026;45.478;9.224;2023-03-01T15:17:03;28.55;;;16.45;;
50128;SDS011;36026;45.478;9.224;2023-03-01T15:20:06;28.92;;;16.25;;
50128;SDS011;36026;45.478;9.224;2023-03-01T15:23:28;35.97;;;17.95;;
50128;SDS011;36026;45.478;9.224;2023-03-01T15:26:37;28.17;;;17.42;;
50128;SDS011;36026;45.478;9.224;2023-03-01T15:29:44;28.67;;;17.95;;
50128;SDS011;36026;45.478;9.224;2023-03-01T15:36:35;28.30;;;16.83;;
50128;SDS011;36026;45.478;9.224;2023-03-01T15:39:42;30.67;;;17.95;;
50128;SDS011;36026;45.478;9.224;2023-03-01T15:42:44;27.17;;;17.15;;
50128;SDS011;36026;45.478;9.224;2023-03-01T15:49:04;32.80;;;18.00;;
50128;SDS011;36026;45.478;9.224;2023-03-01T15:52:20;33.28;;;18.52;;
50128;SDS011;36026;45.478;9.224;2023-03-01T15:55:31;30.55;;;18.08;;
50128;SDS011;36026;45.478;9.224;2023-03-01T15:58:33;35.80;;;20.58;;
50128;SDS011;36026;45.478;9.224;2023-03-01T16:01:43;34.65;;;18.85;;
50128;SDS011;36026;45.478;9.224;2023-03-01T16:08:11;102.35;;;54.60;;
50128;SDS011;36026;45.478;9.224;2023-03-01T16:14:31;36.33;;;20.13;;
50128;SDS011;36026;45.478;9.224;2023-03-01T16:17:33;31.13;;;19.02;;
50128;SDS011;36026;45.478;9.224;2023-03-01T16:20:35;32.88;;;18.88;;
50128;SDS011;36026;45.478;9.224;2023-03-01T16:23:40;27.55;;;16.70;;
50128;SDS011;36026;45.478;9.224;2023-03-01T16:26:43;28.48;;;17.17;;
50128;SDS011;36026;45.478;9.224;2023-03-01T16:29:47;29.95;;;17.00;;
50128;SDS011;36026;45.478;9.224;2023-03-01T16:32:51;26.20;;;15.50;;
50128;SDS011;36026;45.478;9.224;2023-03-01T16:35:53;29.50;;;17.02;;
50128;SDS011;36026;45.478;9.224;2023-03-01T16:38:55;30.75;;;16.15;;
50128;SDS011;36026;45.478;9.224;2023-03-01T16:42:01;29.58;;;17.08;;
50128;SDS011;36026;45.478;9.224;2023-03-01T16:45:44;33.65;;;17.27;;
50128;SDS011;36026;45.478;9.224;2023-03-01T16:48:29;25.67;;;15.57;;
50128;SDS011;36026;45.478;9.224;2023-03-01T16:51:40;25.40;;;15.48;;
50128;SDS011;36026;45.478;9.224;2023-03-01T16:54:42;27.10;;;16.40;;
50128;SDS011;36026;45.478;9.224;2023-03-01T16:58:07;26.85;;;16.25;;
50128;SDS011;36026;45.478;9.224;2023-03-01T17:01:16;28.60;;;16.17;;
50128;SDS011;36026;45.478;9.224;2023-03-01T17:07:38;25.13;;;15.55;;
50128;SDS011;36026;45.478;9.224;2023-03-01T17:10:45;28.50;;;16.83;;
50128;SDS011;36026;45.478;9.224;2023-03-01T17:14:01;30.42;;;17.20;;
50128;SDS011;36026;45.478;9.224;2023-03-01T17:17:04;30.13;;;16.40;;
50128;SDS011;36026;45.478;9.224;2023-03-01T17:20:07;31.55;;;18.08;;
50128;SDS011;36026;45.478;9.224;2023-03-01T17:23:23;29.92;;;17.25;;
50128;SDS011;36026;45.478;9.224;2023-03-01T17:26:37;31.42;;;17.63;;
50128;SDS011;36026;45.478;9.224;2023-03-01T17:30:00;32.58;;;19.00;;
50128;SDS011;36026;45.478;9.224;2023-03-01T17:39:45;32.08;;;18.42;;
50128;SDS011;36026;45.478;9.224;2023-03-01T17:42:47;35.45;;;19.70;;
50128;SDS011;36026;45.478;9.224;2023-03-01T17:45:51;41.53;;;20.65;;
50128;SDS011;36026;45.478;9.224;2023-03-01T17:48:58;41.30;;;22.63;;
50128;SDS011;36026;45.478;9.224;2023-03-01T17:52:00;40.95;;;22.08;;
50128;SDS011;36026;45.478;9.224;2023-03-01T17:55:09;43.90;;;21.50;;
50128;SDS011;36026;45.478;9.224;2023-03-01T17:58:34;42.05;;;23.17;;
50128;SDS011;36026;45.478;9.224;2023-03-01T18:01:41;44.63;;;22.98;;
50128;SDS011;36026;45.478;9.224;2023-03-01T18:04:43;42.03;;;22.40;;
50128;SDS011;36026;45.478;9.224;2023-03-01T18:07:53;46.60;;;24.40;;
50128;SDS011;36026;45.478;9.224;2023-03-01T18:11:04;42.45;;;23.35;;
50128;SDS011;36026;45.478;9.224;2023-03-01T18:14:25;48.83;;;24.77;;
50128;SDS011;36026;45.478;9.224;2023-03-01T18:17:30;42.95;;;24.50;;
50128;SDS011;36026;45.478;9.224;2023-03-01T18:20:35;51.40;;;25.63;;
50128;SDS011;36026;45.478;9.224;2023-03-01T18:23:44;52.67;;;26.73;;
50128;SDS011;36026;45.478;9.224;2023-03-01T18:26:58;50.65;;;25.52;;
50128;SDS011;36026;45.478;9.224;2023-03-01T18:33:18;46.63;;;23.50;;
50128;SDS011;36026;45.478;9.224;2023-03-01T18:39:23;35.30;;;19.58;;
50128;SDS011;36026;45.478;9.224;2023-03-01T18:42:25;36.47;;;22.20;;
50128;SDS011;36026;45.478;9.224;2023-03-01T18:45:27;39.47;;;22.40;;
50128;SDS011;36026;45.478;9.224;2023-03-01T18:48:30;38.58;;;22.13;;
50128;SDS011;36026;45.478;9.224;2023-03-01T18:51:32;36.80;;;21.63;;
50128;SDS011;36026;45.478;9.224;2023-03-01T18:54:35;38.95;;;22.75;;
50128;SDS011;36026;45.478;9.224;2023-03-01T18:57:38;36.58;;;21.30;;
50128;SDS011;36026;45.478;9.224;2023-03-01T19:00:42;40.53;;;22.67;;
50128;SDS011;36026;45.478;9.224;2023-03-01T19:03:58;41.00;;;23.55;;
50128;SDS011;36026;45.478;9.224;2023-03-01T19:07:00;40.58;;;24.50;;
50128;SDS011;36026;45.478;9.224;2023-03-01T19:10:12;42.58;;;24.85;;
50128;SDS011;36026;45.478;9.224;2023-03-01T19:13:14;46.45;;;25.25;;
50128;SDS011;36026;45.478;9.224;2023-03-01T19:16:54;41.97;;;24.80;;
50128;SDS011;36026;45.478;9.224;2023-03-01T19:27:29;40.10;;;22.75;;
50128;SDS011;36026;45.478;9.224;2023-03-01T19:30:34;37.55;;;23.02;;
50128;SDS011;36026;45.478;9.224;2023-03-01T19:37:02;36.42;;;21.38;;
50128;SDS011;36026;45.478;9.224;2023-03-01T19:40:09;37.50;;;22.25;;
50128;SDS011;36026;45.478;9.224;2023-03-01T19:43:11;39.97;;;23.92;;
50128;SDS011;36026;45.478;9.224;2023-03-01T19:46:13;33.63;;;20.70;;
50128;SDS011;36026;45.478;9.224;2023-03-01T19:49:16;32.83;;;20.00;;
50128;SDS011;36026;45.478;9.224;2023-03-01T19:52:21;27.73;;;16.95;;
50128;SDS011;36026;45.478;9.224;2023-03-01T19:55:25;26.45;;;16.75;;
50128;SDS011;36026;45.478;9.224;2023-03-01T19:58:40;26.90;;;16.48;;
50128;SDS011;36026;45.478;9.224;2023-03-01T20:01:43;27.33;;;17.27;;
50128;SDS011;36026;45.478;9.224;2023-03-01T20:04:46;28.48;;;17.38;;
50128;SDS011;36026;45.478;9.224;2023-03-01T20:08:02;26.98;;;17.05;;
50128;SDS011;36026;45.478;9.224;2023-03-01T20:11:06;29.85;;;18.52;;
50128;SDS011;36026;45.478;9.224;2023-03-01T20:18:16;27.13;;;17.65;;
50128;SDS011;36026;45.478;9.224;2023-03-01T20:21:24;28.90;;;18.30;;
50128;SDS011;36026;45.478;9.224;2023-03-01T20:24:36;28.50;;;18.95;;
50128;SDS011;36026;45.478;9.224;2023-03-01T20:27:42;30.27;;;19.55;;
50128;SDS011;36026;45.478;9.224;2023-03-01T20:31:00;31.60;;;19.52;;
50128;SDS011;36026;45.478;9.224;2023-03-01T20:34:45;32.72;;;20.27;;
50128;SDS011;36026;45.478;9.224;2023-03-01T20:37:49;33.42;;;19.83;;
50128;SDS011;36026;45.478;9.224;2023-03-01T20:40:59;33.58;;;21.13;;
50128;SDS011;36026;45.478;9.224;2023-03-01T20:44:03;34.25;;;21.77;;
50128;SDS011;36026;45.478;9.224;2023-03-01T20:47:08;32.28;;;21.77;;